createdAt,value
2019-02-09T00:04:12.310Z,70.58
2019-02-09T00:09:17.535Z,70.54
2019-02-09T00:14:22.856Z,70.51
2019-02-09T00:19:28.484Z,70.34
2019-02-09T00:24:33.741Z,70.08
2019-02-09T00:29:46.130Z,69.98
2019-02-09T00:34:47.043Z,69.86
2019-02-09T00:39:52.982Z,69.79
2019-02-09T00:44:58.367Z,70.11
2019-02-09T00:50:07.425Z,70.49
2019-02-09T01:00:25.393Z,70.97
2019-02-09T01:05:33.413Z,70.99
2019-02-09T01:10:38.987Z,71.05
2019-02-09T01:15:44.635Z,71.18
2019-02-09T01:20:50.015Z,70.99
2019-02-09T01:25:55.359Z,71.15
2019-02-09T01:31:00.731Z,71.06
2019-02-09T01:36:06.698Z,70.86
2019-02-09T01:41:12.455Z,70.94
2019-02-09T01:46:17.805Z,70.79
2019-02-09T01:51:23.263Z,70.99
2019-02-09T01:56:28.733Z,70.87
2019-02-09T02:01:34.201Z,70.94
2019-02-09T02:06:39.777Z,70.78
2019-02-09T02:11:45.316Z,70.37
2019-02-09T02:16:50.680Z,70.55
2019-02-09T02:21:56.240Z,70.42
2019-02-09T02:27:01.805Z,70.44
2019-02-09T02:32:07.167Z,70.49
2019-02-09T02:37:12.748Z,70.23
2019-02-09T02:42:18.194Z,70.26
2019-02-09T02:47:23.364Z,70.34
2019-02-09T02:52:28.914Z,70.17
2019-02-09T02:57:34.362Z,70.05
2019-02-09T03:02:39.789Z,70.09
2019-02-09T03:07:46.292Z,70.18
2019-02-09T03:12:51.915Z,70.21
2019-02-09T03:17:57.688Z,70.30
2019-02-09T03:23:05.831Z,70.08
2019-02-09T03:28:11.218Z,70.34
2019-02-09T03:33:16.714Z,70.37
2019-02-09T03:38:22.348Z,70.36
2019-02-09T03:43:27.784Z,70.36
2019-02-09T03:48:33.192Z,70.29
2019-02-09T03:53:38.477Z,70.33
2019-02-09T03:58:43.804Z,70.27
2019-02-09T04:03:49.246Z,70.16
2019-02-09T04:08:54.718Z,70.04
2019-02-09T04:14:00.062Z,70.15
2019-02-09T04:19:05.601Z,69.94
2019-02-09T04:24:11.084Z,69.60
2019-02-09T04:29:16.601Z,69.64
2019-02-09T04:34:21.811Z,69.82
2019-02-09T04:39:27.446Z,69.73
2019-02-09T04:44:32.965Z,69.59
2019-02-09T04:49:38.611Z,69.37
2019-02-09T04:54:44.170Z,69.34
2019-02-09T04:59:49.946Z,69.29
2019-02-09T05:04:55.653Z,68.97
2019-02-09T05:10:01.303Z,69.13
2019-02-09T05:15:12.489Z,68.87
2019-02-09T05:20:20.379Z,68.82
2019-02-09T05:25:25.851Z,68.57
2019-02-09T05:30:31.218Z,68.53
2019-02-09T05:35:36.558Z,68.79
2019-02-09T05:40:42.350Z,68.38
2019-02-09T05:45:47.526Z,68.37
2019-02-09T05:50:52.747Z,68.08
2019-02-09T05:55:58.111Z,68.29
2019-02-09T06:01:03.570Z,68.05
2019-02-09T06:06:09.154Z,67.81
2019-02-09T06:11:14.624Z,67.50
2019-02-09T06:16:19.872Z,67.37
2019-02-09T06:21:25.204Z,67.62
2019-02-09T06:26:30.633Z,67.38
2019-02-09T06:31:41.045Z,67.73
2019-02-09T06:36:42.982Z,67.78
2019-02-09T06:41:48.475Z,67.88
2019-02-09T06:46:53.946Z,68.18
2019-02-09T06:51:59.416Z,68.07
2019-02-09T06:57:05.541Z,68.21
2019-02-09T07:02:10.676Z,68.64
2019-02-09T07:07:16.394Z,68.19
2019-02-09T07:12:22.298Z,67.78
2019-02-09T07:17:27.838Z,67.80
2019-02-09T07:22:33.196Z,67.45
2019-02-09T07:27:39.162Z,67.59
2019-02-09T07:32:44.468Z,67.55
2019-02-09T07:37:49.722Z,67.08
2019-02-09T07:42:55.829Z,67.20
2019-02-09T07:48:01.173Z,66.72
2019-02-09T07:53:06.768Z,66.65
2019-02-09T07:58:12.012Z,66.70
2019-02-09T08:03:17.611Z,66.46
2019-02-09T08:08:22.972Z,66.28
2019-02-09T08:13:28.432Z,65.67
2019-02-09T08:18:33.735Z,65.86
2019-02-09T08:23:39.135Z,65.59
2019-02-09T08:28:44.399Z,65.17
2019-02-09T08:33:49.911Z,64.75
2019-02-09T08:38:55.200Z,64.52
2019-02-09T08:44:00.810Z,64.31
2019-02-09T08:49:05.998Z,63.74
2019-02-09T08:54:11.595Z,63.94
2019-02-09T08:59:16.971Z,63.58
2019-02-09T09:04:22.418Z,63.45
2019-02-09T09:09:27.984Z,62.83
2019-02-09T09:14:33.864Z,63.02
2019-02-09T09:19:39.204Z,63.30
2019-02-09T09:24:44.339Z,62.55
2019-02-09T09:29:49.561Z,63.02
2019-02-09T09:34:54.971Z,62.93
2019-02-09T09:40:00.246Z,63.07
2019-02-09T09:45:11.562Z,62.43
2019-02-09T09:50:20.364Z,62.65
2019-02-09T09:55:26.038Z,62.24
2019-02-09T10:00:31.499Z,62.26
2019-02-09T10:05:37.163Z,61.75
2019-02-09T10:10:42.846Z,62.00
2019-02-09T10:15:48.161Z,61.60
2019-02-09T10:20:53.967Z,60.65
2019-02-09T10:25:59.527Z,60.73
2019-02-09T10:31:05.059Z,60.55
2019-02-09T10:36:11.605Z,60.03
2019-02-09T10:41:17.016Z,60.33
2019-02-09T10:46:23.298Z,59.67
2019-02-09T10:51:28.452Z,58.94
2019-02-09T10:56:33.628Z,58.96
2019-02-09T11:01:39.614Z,58.67
2019-02-09T11:06:44.849Z,58.17
2019-02-09T11:11:50.067Z,57.80
2019-02-09T11:16:55.675Z,58.15
2019-02-09T11:22:01.055Z,58.10
2019-02-09T11:27:06.386Z,57.22
2019-02-09T11:32:11.784Z,56.71
2019-02-09T11:37:17.095Z,58.17
2019-02-09T11:42:22.556Z,60.68
2019-02-09T11:47:28.163Z,62.35
2019-02-09T11:52:33.423Z,64.27
2019-02-09T11:57:38.857Z,64.39
2019-02-09T12:02:46.002Z,64.97
2019-02-09T12:07:51.434Z,64.50
2019-02-09T12:12:57.128Z,64.34
2019-02-09T12:18:02.946Z,64.43
2019-02-09T12:23:08.642Z,63.91
2019-02-09T12:28:14.585Z,63.98
2019-02-09T12:33:23.126Z,63.90
2019-02-09T12:38:27.168Z,63.89
2019-02-09T12:43:32.711Z,64.06
2019-02-09T12:48:37.826Z,63.63
2019-02-09T12:53:43.112Z,64.80
2019-02-09T12:58:48.299Z,66.14
2019-02-09T13:03:53.733Z,66.14
2019-02-09T13:08:59.187Z,66.88
2019-02-09T13:14:05.167Z,67.17
2019-02-09T13:19:10.331Z,67.67
2019-02-09T13:24:15.632Z,68.32
2019-02-09T13:29:20.776Z,66.98
2019-02-09T13:34:25.785Z,67.48
2019-02-09T13:39:30.940Z,66.81
2019-02-09T13:44:36.499Z,67.47
2019-02-09T13:49:41.854Z,67.95
2019-02-09T13:54:47.007Z,68.73
2019-02-09T13:59:52.475Z,70.19
2019-02-09T14:04:57.927Z,70.51
2019-02-09T14:10:03.714Z,71.44
2019-02-09T14:15:23.596Z,71.78
2019-02-09T14:20:29.758Z,71.91
2019-02-09T14:25:35.756Z,71.96
2019-02-09T14:30:41.638Z,71.82
2019-02-09T14:35:46.953Z,71.48
2019-02-09T14:40:52.517Z,71.63
2019-02-09T14:45:57.867Z,71.56
2019-02-09T14:51:03.465Z,71.71
2019-02-09T14:56:09.280Z,71.72
2019-02-09T15:01:15.208Z,71.74
2019-02-09T15:06:20.341Z,71.97
2019-02-09T15:11:25.841Z,72.28
2019-02-09T15:16:32.093Z,72.60
2019-02-09T15:21:37.366Z,72.54
2019-02-09T15:26:42.705Z,72.87
2019-02-09T15:31:48.170Z,73.48
2019-02-09T15:36:53.442Z,73.25
2019-02-09T15:41:58.682Z,73.43
2019-02-09T15:47:05.173Z,73.23
2019-02-09T15:52:10.203Z,73.01
2019-02-09T15:57:15.797Z,72.81
2019-02-09T16:02:21.142Z,72.78
2019-02-09T16:07:26.402Z,72.57
2019-02-09T16:12:31.965Z,72.79
2019-02-09T16:17:37.043Z,73.08
2019-02-09T16:22:42.482Z,73.21
2019-02-09T16:27:47.938Z,73.42
2019-02-09T16:32:53.393Z,73.73
2019-02-09T16:37:58.881Z,74.09
2019-02-09T16:43:05.642Z,74.28
2019-02-09T16:48:12.233Z,74.55
2019-02-09T16:53:17.502Z,74.55
2019-02-09T16:58:22.966Z,74.58
2019-02-09T17:03:28.216Z,74.95
2019-02-09T17:08:33.585Z,74.92
2019-02-09T17:13:39.243Z,74.61
2019-02-09T17:18:44.615Z,74.49
2019-02-09T17:23:49.956Z,74.15
2019-02-09T17:28:55.199Z,74.25
2019-02-09T17:34:00.679Z,74.09
2019-02-09T17:39:08.297Z,74.12
2019-02-09T17:44:13.644Z,74.13
2019-02-09T17:49:18.779Z,74.04
2019-02-09T17:54:24.254Z,74.24
2019-02-09T17:59:29.626Z,74.04
2019-02-09T18:04:34.918Z,73.50
2019-02-09T18:09:40.155Z,73.69
2019-02-09T18:14:45.936Z,73.67
2019-02-09T18:19:51.226Z,73.56
2019-02-09T18:24:56.419Z,73.45
2019-02-09T18:30:01.773Z,73.45
2019-02-09T18:35:08.868Z,73.23
2019-02-09T18:40:27.848Z,73.02
2019-02-09T18:45:34.246Z,72.79
2019-02-09T18:50:39.686Z,72.57
2019-02-09T18:55:45.095Z,72.47
2019-02-09T19:00:50.920Z,72.29
2019-02-09T19:05:56.687Z,72.30
2019-02-09T19:11:01.793Z,72.16
2019-02-09T19:16:07.918Z,71.68
2019-02-09T19:21:14.508Z,71.35
2019-02-09T19:26:19.813Z,71.05
2019-02-09T19:31:25.006Z,71.13
2019-02-09T19:36:30.033Z,71.18
2019-02-09T19:41:35.435Z,71.40
2019-02-09T19:46:40.647Z,71.67
2019-02-09T19:51:45.676Z,71.48
2019-02-09T19:56:51.297Z,71.72
2019-02-09T20:01:56.780Z,72.04
2019-02-09T20:07:01.905Z,72.47
2019-02-09T20:12:07.267Z,72.52
2019-02-09T20:17:12.404Z,72.74
2019-02-09T20:22:17.515Z,72.84
2019-02-09T20:27:22.831Z,72.90
2019-02-09T20:32:28.060Z,72.86
2019-02-09T20:37:33.354Z,72.75
2019-02-09T20:42:38.819Z,72.55
2019-02-09T20:47:48.627Z,72.50
2019-02-09T20:52:51.166Z,72.50
2019-02-09T20:57:56.733Z,71.88
2019-02-09T21:03:02.017Z,70.76
2019-02-09T21:08:07.732Z,70.81
2019-02-09T21:13:13.226Z,71.21
2019-02-09T21:18:18.577Z,71.13
2019-02-09T21:23:23.814Z,70.71
2019-02-09T21:28:29.293Z,71.02
2019-02-09T21:33:35.165Z,71.02
2019-02-09T21:38:40.543Z,70.72
2019-02-09T21:43:45.984Z,70.49
2019-02-09T21:48:51.146Z,69.44
2019-02-09T21:53:56.608Z,69.35
2019-02-09T21:59:01.930Z,69.12
2019-02-09T22:04:07.609Z,68.98
2019-02-09T22:09:13.181Z,69.01
2019-02-09T22:14:18.543Z,68.78
2019-02-09T22:19:23.984Z,68.25
2019-02-09T22:24:29.350Z,67.72
2019-02-09T22:29:34.739Z,67.54
2019-02-09T22:34:40.312Z,67.47
2019-02-09T22:39:46.883Z,67.04
2019-02-09T22:44:52.091Z,66.57
2019-02-09T22:49:57.396Z,66.44
2019-02-09T22:55:02.875Z,66.28
2019-02-09T23:00:35.392Z,66.25
2019-02-09T23:05:47.252Z,66.30
2019-02-09T23:10:52.612Z,66.68
2019-02-09T23:15:58.182Z,66.61
2019-02-09T23:21:03.432Z,66.91
2019-02-09T23:26:08.994Z,66.59
2019-02-09T23:31:14.587Z,66.71
2019-02-09T23:36:21.165Z,66.84
2019-02-09T23:41:26.525Z,66.92
2019-02-09T23:46:31.775Z,67.08
2019-02-09T23:51:37.119Z,67.41
2019-02-09T23:56:42.285Z,67.48
